Time;durP1;ratioP1;P1;durP2;ratioP2;P2;SDS_P1;SDS_P2;PMS_P1;PMS_P2;Temp;Humidity;BMP_temperature;BMP_pressure;BME280_temperature;BME280_humidity;BME280_pressure;Samples;Min_cycle;Max_cycle;Signal;HPM_P1;HPM_P2
2021/05/08 00:00:57;;;;;;;30.88;24.90;;;;;;;6.41;71.14;99793.94;5046404;28;20045;-68
2021/05/08 00:03:23;;;;;;;30.23;23.85;;;;;;;6.37;71.14;99793.28;5046581;28;20496;-69
2021/05/08 00:05:51;;;;;;;31.42;22.13;;;;;;;6.40;71.11;99798.34;5045289;28;20048;-67
2021/05/08 00:08:18;;;;;;;33.53;24.27;;;;;;;6.40;70.79;99802.78;5045960;28;20424;-70
2021/05/08 00:10:44;;;;;;;33.40;22.42;;;;;;;6.45;70.88;99800.72;5046026;28;20052;-68
2021/05/08 00:13:11;;;;;;;29.20;25.00;;;;;;;6.43;71.24;99803.44;5045682;28;20053;-67
2021/05/08 00:15:38;;;;;;;33.28;27.58;;;;;;;6.43;71.33;99806.03;5047013;28;20539;-67
2021/05/08 00:18:04;;;;;;;30.02;25.00;;;;;;;6.44;71.30;99801.63;5046536;28;20067;-68
2021/05/08 00:20:31;;;;;;;33.28;24.25;;;;;;;6.43;71.19;99806.03;5043303;28;20152;-71
2021/05/08 00:22:58;;;;;;;28.90;23.23;;;;;;;6.49;71.26;99810.06;5045855;28;20053;-69
2021/05/08 00:25:25;;;;;;;26.30;21.50;;;;;;;6.49;71.18;99815.31;5045168;28;20040;-68
2021/05/08 00:27:51;;;;;;;27.02;22.15;;;;;;;6.55;71.01;99814.91;5045633;28;20052;-68
2021/05/08 00:30:18;;;;;;;25.00;22.30;;;;;;;6.53;71.18;99819.41;5045184;28;20071;-68
2021/05/08 00:32:45;;;;;;;24.90;20.60;;;;;;;6.55;70.94;99827.19;5045205;28;20045;-69
2021/05/08 00:35:11;;;;;;;23.73;20.27;;;;;;;6.56;70.95;99836.78;5045551;28;20102;-68
2021/05/08 00:37:38;;;;;;;23.48;20.23;;;;;;;6.54;70.79;99836.03;5046091;28;20051;-68
2021/05/08 00:40:07;;;;;;;23.83;20.05;;;;;;;6.54;70.72;99839.47;5045005;28;20098;-67
2021/05/08 00:42:33;;;;;;;23.02;19.67;;;;;;;6.56;70.76;99844.63;5045755;28;20049;-68
2021/05/08 00:44:59;;;;;;;24.55;18.63;;;;;;;6.55;70.74;99840.31;5046270;28;20048;-67
2021/05/08 00:47:26;;;;;;;23.48;19.88;;;;;;;6.57;70.67;99836.69;5045220;28;20536;-68
2021/05/08 00:49:52;;;;;;;21.90;18.88;;;;;;;6.57;70.60;99849.78;5044936;28;20110;-68
2021/05/08 00:52:19;;;;;;;22.92;18.38;;;;;;;6.60;70.54;99852.22;5043556;28;20052;-67
2021/05/08 00:54:45;;;;;;;19.35;15.05;;;;;;;6.62;70.33;99860.81;5045620;28;20055;-68
2021/05/08 00:57:13;;;;;;;20.23;15.85;;;;;;;6.57;70.07;99865.53;5045952;28;20146;-68
2021/05/08 00:59:39;;;;;;;21.58;17.70;;;;;;;6.57;70.30;99872.53;5045223;28;20045;-67
2021/05/08 01:02:06;;;;;;;22.35;20.02;;;;;;;6.60;70.22;99861.88;5047769;28;20178;-66
2021/05/08 01:04:33;;;;;;;19.45;17.33;;;;;;;6.57;70.07;99857.66;5049622;28;20056;-69
2021/05/08 01:07:00;;;;;;;19.05;17.08;;;;;;;6.61;69.96;99866.16;5048151;28;20136;-68
2021/05/08 01:09:26;;;;;;;17.33;13.00;;;;;;;6.58;69.90;99875.09;5049503;28;20049;-67
2021/05/08 01:11:53;;;;;;;16.98;13.00;;;;;;;6.65;69.96;99880.81;5048275;28;20055;-67
2021/05/08 01:14:21;;;;;;;20.30;17.65;;;;;;;6.63;69.76;99878.25;5049829;28;20059;-67
2021/05/08 01:16:48;;;;;;;18.77;12.15;;;;;;;6.64;69.79;99885.19;5051172;28;20052;-68
2021/05/08 01:19:18;;;;;;;18.17;14.88;;;;;;;6.68;69.83;99884.06;5049936;28;20045;-68
2021/05/08 01:21:45;;;;;;;16.10;14.43;;;;;;;6.65;69.59;99884.25;5047872;28;20052;-65
2021/05/08 01:24:12;;;;;;;18.20;14.50;;;;;;;6.63;69.59;99894.00;5046609;28;20064;-70
2021/05/08 01:26:39;;;;;;;16.77;12.25;;;;;;;6.72;69.40;99902.22;5046963;28;20576;-66
2021/05/08 01:29:07;;;;;;;13.38;10.02;;;;;;;6.78;69.40;99907.13;5047900;28;20090;-67
2021/05/08 01:31:34;;;;;;;15.40;13.80;;;;;;;6.72;69.50;99902.22;5047959;28;20049;-67
2021/05/08 01:34:02;;;;;;;13.43;11.32;;;;;;;6.74;69.21;99908.25;5048317;28;20045;-66
2021/05/08 01:36:31;;;;;;;16.25;13.25;;;;;;;6.70;69.34;99911.06;5047606;28;20052;-67
2021/05/08 01:38:58;;;;;;;16.60;14.85;;;;;;;6.64;69.58;99902.72;5047678;28;20053;-67
2021/05/08 01:41:24;;;;;;;16.38;12.55;;;;;;;6.66;69.54;99908.72;5046675;28;20045;-67
2021/05/08 01:43:51;;;;;;;13.70;10.38;;;;;;;6.73;69.38;99914.44;5045211;28;20171;-67
2021/05/08 01:46:17;;;;;;;16.42;14.73;;;;;;;6.74;69.28;99905.63;5045477;28;20139;-67
2021/05/08 01:48:44;;;;;;;14.82;13.32;;;;;;;6.67;69.46;99905.16;5043946;28;20057;-67
2021/05/08 01:51:10;;;;;;;15.35;13.82;;;;;;;6.64;69.22;99905.34;5043522;28;20044;-67
2021/05/08 01:53:36;;;;;;;14.15;12.65;;;;;;;6.56;69.43;99905.00;5045788;28;20099;-66
2021/05/08 01:56:05;;;;;;;13.63;12.20;;;;;;;6.64;69.37;99911.44;5045256;28;20072;-66
2021/05/08 01:58:32;;;;;;;15.73;14.20;;;;;;;6.56;69.40;99924.19;5045322;28;20536;-66
2021/05/08 02:00:59;;;;;;;16.23;14.25;;;;;;;6.53;69.52;99920.91;5048346;28;20252;-67
2021/05/08 02:03:25;;;;;;;14.70;13.10;;;;;;;6.55;69.54;99927.75;5048747;28;20057;-66
2021/05/08 02:05:52;;;;;;;15.43;13.85;;;;;;;6.53;69.52;99926.16;5049152;28;20171;-69
2021/05/08 02:08:18;;;;;;;18.70;11.90;;;;;;;6.51;69.36;99928.88;5048372;28;20053;-67
2021/05/08 02:10:46;;;;;;;13.63;9.82;;;;;;;6.57;69.33;99936.38;5049341;28;20145;-67
2021/05/08 02:13:14;;;;;;;14.10;12.73;;;;;;;6.53;69.22;99934.88;5049456;28;20172;-67
2021/05/08 02:15:42;;;;;;;15.32;13.35;;;;;;;6.50;69.56;99945.56;5048892;28;20045;-67
2021/05/08 02:18:09;;;;;;;14.35;12.05;;;;;;;6.51;69.51;99947.25;5047975;28;20483;-68
2021/05/08 02:20:37;;;;;;;14.00;12.13;;;;;;;6.55;69.39;99943.47;5046143;28;20049;-67
2021/05/08 02:23:05;;;;;;;16.55;13.98;;;;;;;6.56;69.31;99953.06;5048895;28;20195;-66
2021/05/08 02:25:32;;;;;;;12.90;10.15;;;;;;;6.62;69.28;99963.16;5047002;28;20049;-67
2021/05/08 02:27:59;;;;;;;13.75;12.05;;;;;;;6.60;69.32;99962.41;5048658;28;20071;-69
2021/05/08 02:30:29;;;;;;;17.60;13.57;;;;;;;6.57;69.20;99962.63;5049016;28;20049;-66
2021/05/08 02:32:56;;;;;;;15.45;12.25;;;;;;;6.60;69.41;99967.66;5047908;28;20048;-67
2021/05/08 02:35:25;;;;;;;17.98;13.98;;;;;;;6.58;69.21;99968.72;5047480;28;20068;-67
2021/05/08 02:37:52;;;;;;;17.63;15.88;;;;;;;6.60;69.28;99970.28;5048316;28;20460;-67
2021/05/08 02:40:20;;;;;;;16.90;15.15;;;;;;;6.58;69.12;99969.53;5047861;28;20045;-67
2021/05/08 02:42:47;;;;;;;16.60;14.98;;;;;;;6.57;69.44;99973.13;5047521;28;20130;-68
2021/05/08 02:45:15;;;;;;;13.77;12.25;;;;;;;6.56;69.48;99971.41;5047905;28;20155;-67
2021/05/08 02:47:44;;;;;;;15.90;14.40;;;;;;;6.58;69.03;99979.22;5044798;28;20053;-67
2021/05/08 02:50:12;;;;;;;18.88;14.50;;;;;;;6.58;69.16;99981.81;5044692;28;20327;-68
2021/05/08 02:52:38;;;;;;;17.45;14.38;;;;;;;6.56;69.38;99986.34;5051699;28;20069;-66
2021/05/08 02:55:07;;;;;;;17.13;13.98;;;;;;;6.57;69.30;99991.50;5056206;28;20045;-67
2021/05/08 02:57:35;;;;;;;18.17;16.33;;;;;;;6.53;69.45;99987.34;5055435;28;20090;-67
2021/05/08 03:00:01;;;;;;;21.58;18.88;;;;;;;6.50;69.19;99998.03;5054403;28;20252;-67
2021/05/08 03:02:28;;;;;;;19.95;17.95;;;;;;;6.48;69.31;99997.25;5047388;28;20049;-67
2021/05/08 03:04:55;;;;;;;20.00;15.57;;;;;;;6.46;69.33;99993.88;5047053;28;20060;-67
2021/05/08 03:07:21;;;;;;;21.02;18.30;;;;;;;6.43;69.18;99996.72;5047662;28;20049;-67
2021/05/08 03:09:48;;;;;;;21.50;18.83;;;;;;;6.42;69.39;99998.47;5047606;28;20753;-69
2021/05/08 03:12:14;;;;;;;21.52;18.65;;;;;;;6.53;69.08;99991.75;5047317;28;20052;-66
2021/05/08 03:14:40;;;;;;;20.13;17.58;;;;;;;6.48;68.92;99990.25;5047310;28;20065;-69
2021/05/08 03:17:07;;;;;;;18.35;15.13;;;;;;;6.49;68.84;99997.19;5046901;28;21159;-67
2021/05/08 03:19:33;;;;;;;20.55;18.02;;;;;;;6.44;68.86;99993.97;5047187;28;20045;-67
2021/05/08 03:22:00;;;;;;;22.00;18.95;;;;;;;6.47;68.60;99996.44;5046560;28;20537;-67
2021/05/08 03:24:27;;;;;;;18.92;15.40;;;;;;;6.58;68.41;100008.91;5047276;28;20053;-68
2021/05/08 03:26:53;;;;;;;20.63;16.00;;;;;;;6.64;68.38;100011.16;5048106;28;20057;-66
2021/05/08 03:29:20;;;;;;;19.17;16.95;;;;;;;6.69;68.28;100014.34;5028666;28;20060;-68
2021/05/08 03:31:46;;;;;;;20.17;17.80;;;;;;;6.72;68.22;100017.72;5046512;28;20118;-68
2021/05/08 03:34:12;;;;;;;21.67;17.17;;;;;;;6.77;68.11;100020.91;5047705;28;20645;-68
2021/05/08 03:36:39;;;;;;;18.42;15.40;;;;;;;6.80;67.87;100021.56;5045041;28;20041;-65
2021/05/08 03:39:07;;;;;;;17.05;14.77;;;;;;;6.78;67.68;100015.56;5046601;28;20045;-68
2021/05/08 03:41:33;;;;;;;19.20;15.40;;;;;;;6.82;67.49;100030.19;5047389;28;20565;-67
2021/05/08 03:44:00;;;;;;;18.15;14.32;;;;;;;6.94;67.63;100019.91;5045995;28;20056;-68
2021/05/08 03:46:26;;;;;;;16.00;12.93;;;;;;;7.02;67.31;100018.50;5045858;28;20091;-66
2021/05/08 03:48:52;;;;;;;15.68;13.13;;;;;;;7.06;67.36;100038.38;5046572;28;20065;-67
2021/05/08 03:51:23;;;;;;;17.95;14.48;;;;;;;7.07;67.16;100040.06;5044383;28;20109;-67
2021/05/08 03:53:49;;;;;;;16.58;14.55;;;;;;;6.98;67.04;100032.75;5045795;28;20110;-66
2021/05/08 03:56:17;;;;;;;18.58;14.73;;;;;;;6.98;67.26;100032.75;5047309;28;20630;-67
2021/05/08 03:58:44;;;;;;;17.58;15.32;;;;;;;6.94;67.15;100033.88;5046828;28;20075;-67
2021/05/08 04:01:11;;;;;;;16.42;11.23;;;;;;;7.00;67.07;100037.91;5046001;28;20493;-70
2021/05/08 04:03:38;;;;;;;12.77;11.48;;;;;;;7.04;67.08;100040.25;5047420;28;20048;-68
2021/05/08 04:06:05;;;;;;;15.30;12.93;;;;;;;7.08;66.90;100036.50;5046570;28;20125;-66
2021/05/08 04:08:31;;;;;;;12.38;9.55;;;;;;;7.08;66.75;100046.16;5045075;28;20056;-69
2021/05/08 04:10:58;;;;;;;14.13;11.65;;;;;;;7.01;66.59;100040.44;5044876;28;20473;-66
2021/05/08 04:13:26;;;;;;;12.13;8.85;;;;;;;7.00;66.70;100048.41;5045097;28;20051;-66
2021/05/08 04:15:55;;;;;;;13.93;11.50;;;;;;;7.00;66.72;100048.41;5044806;28;20041;-68
2021/05/08 04:18:21;;;;;;;12.50;9.07;;;;;;;7.04;66.39;100060.41;5045557;28;20049;-68
2021/05/08 04:20:48;;;;;;;11.57;8.95;;;;;;;6.98;66.52;100066.88;5044397;28;20078;-68
2021/05/08 04:23:15;;;;;;;13.50;11.00;;;;;;;7.07;66.59;100066.31;5046336;28;20056;-66
2021/05/08 04:25:41;;;;;;;9.45;7.22;;;;;;;7.18;66.20;100067.44;5046565;28;20052;-67
2021/05/08 04:28:09;;;;;;;9.95;7.38;;;;;;;7.26;66.14;100070.47;5045167;28;20444;-67
2021/05/08 04:30:36;;;;;;;11.10;7.15;;;;;;;7.34;66.15;100073.44;5045211;28;20056;-66
2021/05/08 04:33:03;;;;;;;10.40;9.05;;;;;;;7.40;65.81;100075.69;5044533;28;20083;-67
2021/05/08 04:35:29;;;;;;;11.13;6.75;;;;;;;7.32;66.03;100069.22;5045927;28;20152;-68
2021/05/08 04:38:01;;;;;;;11.82;9.00;;;;;;;7.15;65.79;100067.63;5045997;28;20061;-68
2021/05/08 04:40:29;;;;;;;11.70;8.43;;;;;;;7.15;66.16;100079.00;5046177;28;20041;-68
2021/05/08 04:42:56;;;;;;;9.05;7.10;;;;;;;7.11;66.40;100074.84;5044304;28;20068;-70
2021/05/08 04:45:25;;;;;;;10.95;7.90;;;;;;;7.01;66.64;100079.81;5047042;28;20061;-67
2021/05/08 04:47:55;;;;;;;10.23;8.23;;;;;;;6.98;66.93;100087.03;5045969;28;20151;-68
2021/05/08 04:50:22;;;;;;;9.50;6.40;;;;;;;6.94;66.96;100090.81;5042718;28;20052;-67
2021/05/08 04:52:49;;;;;;;9.27;5.90;;;;;;;7.08;66.66;100090.81;5045913;28;20048;-67
2021/05/08 04:55:16;;;;;;;7.00;5.30;;;;;;;7.05;66.40;100088.38;5044346;28;20477;-68
2021/05/08 04:57:44;;;;;;;9.80;6.82;;;;;;;7.06;66.42;100085.66;5042716;28;20052;-68
2021/05/08 05:00:12;;;;;;;8.65;5.43;;;;;;;7.19;66.36;100090.16;5045381;28;20052;-68
2021/05/08 05:02:42;;;;;;;11.52;7.18;;;;;;;7.28;66.32;100097.47;5024711;28;20140;-66
2021/05/08 05:05:11;;;;;;;9.02;5.95;;;;;;;7.41;66.20;100108.06;5043558;28;20059;-67
2021/05/08 05:07:38;;;;;;;11.73;7.95;;;;;;;7.52;65.84;100110.88;5044572;28;20057;-67
2021/05/08 05:10:05;;;;;;;11.27;7.45;;;;;;;7.56;65.84;100104.50;5044311;28;20434;-68
2021/05/08 05:12:32;;;;;;;11.88;10.35;;;;;;;7.55;65.54;100108.06;5043500;28;20052;-67
2021/05/08 05:14:59;;;;;;;12.48;9.20;;;;;;;7.64;65.54;100112.75;5045082;28;20048;-68
2021/05/08 05:17:25;;;;;;;13.43;8.88;;;;;;;7.82;65.29;100123.88;5041566;28;20045;-68
2021/05/08 05:19:52;;;;;;;12.88;10.15;;;;;;;7.81;64.50;100124.84;5043894;28;20083;-66
2021/05/08 05:22:20;;;;;;;10.93;7.95;;;;;;;7.98;64.58;100123.75;5042749;28;20045;-67
2021/05/08 05:24:47;;;;;;;15.20;10.68;;;;;;;8.08;64.15;100124.00;5043830;28;20548;-68
2021/05/08 05:27:13;;;;;;;14.20;7.95;;;;;;;8.06;63.99;100133.78;5044089;28;20060;-68
2021/05/08 05:29:39;;;;;;;16.05;10.52;;;;;;;8.14;63.51;100131.53;5043510;28;20045;-67
2021/05/08 05:32:06;;;;;;;13.02;9.55;;;;;;;8.15;62.92;100127.09;5043599;28;20618;-66
2021/05/08 05:34:33;;;;;;;11.93;8.77;;;;;;;8.28;62.86;100127.13;5042815;28;20055;-68
2021/05/08 05:36:59;;;;;;;11.23;9.15;;;;;;;8.40;62.55;100137.72;5044175;28;20041;-67
2021/05/08 05:39:27;;;;;;;8.85;7.68;;;;;;;8.61;62.48;100143.41;5043312;28;20045;-67
2021/05/08 05:41:53;;;;;;;12.13;7.80;;;;;;;8.83;62.06;100143.75;5043479;28;20386;-66
2021/05/08 05:44:20;;;;;;;9.57;7.60;;;;;;;8.97;61.65;100146.31;5044038;28;20064;-66
2021/05/08 05:46:46;;;;;;;11.10;6.72;;;;;;;9.05;61.21;100141.34;5043401;28;20540;-68
2021/05/08 05:49:12;;;;;;;10.38;6.70;;;;;;;9.53;60.85;100143.38;5042807;28;20052;-68
2021/05/08 05:51:39;;;;;;;11.98;9.70;;;;;;;9.55;59.10;100138.81;5042402;28;20085;-67
2021/05/08 05:54:06;;;;;;;9.73;8.73;;;;;;;9.41;58.83;100146.84;5042115;28;20063;-67
2021/05/08 05:56:33;;;;;;;11.57;7.10;;;;;;;9.34;59.78;100147.25;5043016;28;20053;-65
2021/05/08 05:59:00;;;;;;;12.50;9.38;;;;;;;9.48;59.36;100145.47;5041446;28;20061;-67
2021/05/08 06:01:26;;;;;;;11.07;8.35;;;;;;;9.56;59.44;100148.41;5040617;28;20465;-67
2021/05/08 06:03:52;;;;;;;9.88;8.73;;;;;;;9.55;59.28;100141.47;5040423;28;20049;-70
2021/05/08 06:06:19;;;;;;;11.75;8.63;;;;;;;9.46;59.24;100152.66;5043848;28;20608;-66
2021/05/08 06:08:45;;;;;;;11.10;8.38;;;;;;;9.68;58.98;100151.97;5039738;28;20076;-67
2021/05/08 06:11:13;;;;;;;9.48;8.38;;;;;;;9.48;58.58;100145.47;5044037;28;20095;-67
2021/05/08 06:13:40;;;;;;;11.73;9.27;;;;;;;9.32;58.88;100151.78;5042658;28;20053;-67
2021/05/08 06:16:07;;;;;;;11.52;7.90;;;;;;;9.52;59.36;100155.69;5043327;28;20650;-67
2021/05/08 06:18:33;;;;;;;12.80;7.43;;;;;;;9.70;58.73;100161.47;5044614;28;20053;-66
2021/05/08 06:21:00;;;;;;;9.48;8.48;;;;;;;9.59;57.90;100155.28;5041303;28;20690;-69
2021/05/08 06:23:27;;;;;;;12.60;7.60;;;;;;;9.45;58.90;100164.13;5042893;28;20053;-68
2021/05/08 06:25:54;;;;;;;12.82;7.30;;;;;;;9.34;59.48;100170.97;5044546;28;20055;-67
2021/05/08 06:28:20;;;;;;;9.15;7.03;;;;;;;9.43;58.65;100173.94;5042702;28;20048;-66
2021/05/08 06:30:47;;;;;;;9.27;7.13;;;;;;;9.51;58.85;100176.91;5042077;28;20110;-67
2021/05/08 06:33:14;;;;;;;8.43;6.95;;;;;;;9.61;59.18;100172.66;5043901;28;20070;-73
2021/05/08 06:35:40;;;;;;;8.90;6.25;;;;;;;9.76;58.96;100182.16;5049223;28;20044;-70
2021/05/08 06:38:07;;;;;;;8.88;7.22;;;;;;;9.60;58.57;100173.63;5045217;28;20041;-72
2021/05/08 06:40:33;;;;;;;8.88;5.22;;;;;;;9.65;58.84;100168.88;5046547;28;20059;-73
2021/05/08 06:43:00;;;;;;;8.20;7.07;;;;;;;9.54;58.15;100166.13;5026992;28;20045;-71
2021/05/08 06:45:26;;;;;;;9.80;7.18;;;;;;;9.31;58.22;100171.22;5045552;28;20131;-74
2021/05/08 06:47:59;;;;;;;8.63;7.80;;;;;;;9.21;58.80;100172.78;5048203;28;20078;-74
2021/05/08 06:50:26;;;;;;;11.45;8.20;;;;;;;9.16;59.38;100169.59;5048015;28;20041;-71
2021/05/08 06:52:52;;;;;;;9.20;8.15;;;;;;;9.33;59.20;100177.22;5050203;28;20048;-69
2021/05/08 06:55:19;;;;;;;9.02;6.45;;;;;;;9.70;59.00;100169.38;5045960;28;20120;-71
2021/05/08 06:57:45;;;;;;;8.98;6.93;;;;;;;10.17;57.70;100179.31;5046286;28;20041;-78
2021/05/08 07:00:13;;;;;;;9.60;6.32;;;;;;;9.88;57.26;100179.59;5046225;28;20060;-74
2021/05/08 07:02:39;;;;;;;9.80;6.38;;;;;;;9.76;57.12;100176.03;5047159;28;20041;-71
2021/05/08 07:05:08;;;;;;;9.80;7.55;;;;;;;9.71;56.78;100178.16;5045216;28;20052;-71
2021/05/08 07:07:34;;;;;;;10.55;7.47;;;;;;;9.69;57.79;100180.88;5045508;28;20055;-74
2021/05/08 07:10:03;;;;;;;6.88;6.07;;;;;;;9.93;57.38;100188.03;5044856;28;20063;-67
2021/05/08 07:12:29;;;;;;;11.00;6.35;;;;;;;10.16;57.29;100185.56;5046084;28;20145;-71
2021/05/08 07:14:55;;;;;;;7.10;5.53;;;;;;;10.11;56.56;100178.78;5046614;28;20045;-74
2021/05/08 07:17:22;;;;;;;10.43;5.93;;;;;;;10.16;55.12;100177.63;5045196;28;20079;-68
2021/05/08 07:19:48;;;;;;;6.57;4.88;;;;;;;10.44;54.86;100180.00;5044097;28;20094;-70
2021/05/08 07:22:16;;;;;;;7.35;5.13;;;;;;;10.60;54.99;100181.50;5042316;28;20045;-66
2021/05/08 07:24:42;;;;;;;6.30;5.10;;;;;;;10.64;53.77;100177.66;5043176;28;20053;-66
2021/05/08 07:27:08;;;;;;;7.60;5.10;;;;;;;10.61;54.28;100173.47;5042253;28;20049;-67
2021/05/08 07:29:35;;;;;;;6.40;5.53;;;;;;;10.85;54.14;100186.63;5045026;28;20049;-68
2021/05/08 07:32:01;;;;;;;11.77;5.38;;;;;;;11.13;53.73;100184.56;5044391;28;20049;-67
2021/05/08 07:34:27;;;;;;;8.27;5.55;;;;;;;11.76;52.68;100181.53;5043030;28;20045;-70
2021/05/08 07:36:55;;;;;;;6.10;4.40;;;;;;;11.70;51.76;100193.41;5044253;28;20446;-69
2021/05/08 07:39:23;;;;;;;7.13;4.60;;;;;;;11.97;51.62;100189.56;5042765;28;20052;-68
2021/05/08 07:41:52;;;;;;;6.50;3.42;;;;;;;12.48;51.41;100188.16;5042083;28;20686;-69
2021/05/08 07:44:18;;;;;;;6.75;4.28;;;;;;;12.38;49.82;100185.41;5042744;28;20047;-66
2021/05/08 07:46:45;;;;;;;6.82;3.15;;;;;;;12.35;50.48;100193.59;5043402;28;20052;-68
2021/05/08 07:49:11;;;;;;;7.13;3.45;;;;;;;12.45;49.42;100197.19;5042536;28;20045;-68
2021/05/08 07:51:38;;;;;;;7.85;3.83;;;;;;;12.27;47.58;100193.41;5042631;28;20048;-67
2021/05/08 07:54:07;;;;;;;4.70;3.58;;;;;;;12.25;46.81;100188.22;5042373;28;20063;-68
2021/05/08 07:56:35;;;;;;;11.35;3.97;;;;;;;12.14;47.60;100193.53;5041749;28;20119;-66
2021/05/08 07:59:03;;;;;;;5.68;3.72;;;;;;;12.11;48.23;100207.84;5043320;28;20045;-67
2021/05/08 08:01:30;;;;;;;5.82;3.65;;;;;;;11.96;48.61;100206.44;5042496;28;20102;-66
2021/05/08 08:03:56;;;;;;;11.30;4.55;;;;;;;11.77;47.69;100199.06;5043171;28;20052;-66
2021/05/08 08:06:22;;;;;;;7.13;3.58;;;;;;;11.39;47.40;100209.00;5043399;28;20090;-67
2021/05/08 08:08:49;;;;;;;7.93;3.83;;;;;;;11.16;48.64;100200.19;5042020;28;20501;-67
2021/05/08 08:11:15;;;;;;;8.95;3.20;;;;;;;10.99;48.75;100203.28;5042549;28;20451;-67
2021/05/08 08:13:47;;;;;;;7.93;3.47;;;;;;;10.78;50.07;100211.00;5043669;28;20669;-68
2021/05/08 08:16:14;;;;;;;4.90;3.60;;;;;;;10.75;48.98;100206.78;5040235;28;20053;-66
2021/05/08 08:18:40;;;;;;;6.78;3.60;;;;;;;10.71;49.06;100200.88;5038597;28;20045;-66
2021/05/08 08:21:07;;;;;;;5.28;2.40;;;;;;;10.66;48.96;100218.00;5040343;28;20049;-66
2021/05/08 08:23:33;;;;;;;4.95;2.75;;;;;;;11.02;48.88;100208.31;5039900;28;20049;-68
2021/05/08 08:26:00;;;;;;;5.68;3.53;;;;;;;11.78;48.08;100222.75;5040924;28;20053;-68
2021/05/08 08:28:26;;;;;;;5.30;2.50;;;;;;;12.26;46.33;100219.00;5041475;28;20128;-67
2021/05/08 08:30:54;;;;;;;4.63;2.55;;;;;;;12.42;45.89;100211.53;5040725;28;20045;-67
2021/05/08 08:33:20;;;;;;;3.17;2.20;;;;;;;12.48;45.42;100209.34;5039816;28;20459;-67
2021/05/08 08:35:47;;;;;;;5.18;2.80;;;;;;;12.39;46.00;100210.94;5040698;28;20110;-68
2021/05/08 08:38:14;;;;;;;4.95;2.95;;;;;;;12.15;46.23;100224.34;5038756;28;20128;-66
2021/05/08 08:40:40;;;;;;;5.47;2.90;;;;;;;11.74;45.95;100225.75;5041246;28;20045;-68
2021/05/08 08:43:07;;;;;;;4.45;2.67;;;;;;;11.66;47.23;100235.13;5039541;28;20049;-67
2021/05/08 08:45:34;;;;;;;4.45;2.60;;;;;;;11.57;47.03;100233.19;5038684;28;20056;-66
2021/05/08 08:48:02;;;;;;;4.88;2.63;;;;;;;11.34;47.83;100228.81;5020529;28;20232;-65
2021/05/08 08:50:30;;;;;;;7.72;4.28;;;;;;;11.04;49.73;100224.91;5037426;28;20045;-67
2021/05/08 08:52:56;;;;;;;10.18;5.75;;;;;;;10.53;52.42;100239.19;5037610;28;20052;-67
2021/05/08 08:55:23;;;;;;;8.43;5.18;;;;;;;10.29;53.64;100252.34;5039990;28;20056;-67
2021/05/08 08:57:52;;;;;;;11.27;5.43;;;;;;;10.00;54.33;100242.03;5037560;28;20049;-69
2021/05/08 09:00:19;;;;;;;7.60;4.30;;;;;;;9.70;54.67;100259.03;5038705;28;20053;-66
2021/05/08 09:02:56;;;;;;;9.82;4.68;;;;;;;9.49;56.18;100257.88;5037834;28;20041;-66
2021/05/08 09:05:26;;;;;;;8.18;4.32;;;;;;;9.52;56.95;100255.03;5037801;28;20052;-67
2021/05/08 09:07:53;;;;;;;9.77;4.85;;;;;;;9.89;56.02;100245.44;5040281;28;20681;-67
2021/05/08 09:10:24;;;;;;;6.45;3.58;;;;;;;10.06;56.27;100254.78;5040476;28;20056;-68
2021/05/08 09:12:51;;;;;;;8.57;3.42;;;;;;;10.19;53.12;100246.00;5039108;28;20065;-69
2021/05/08 09:15:33;;;;;;;6.72;3.85;;;;;;;10.36;52.75;100242.22;5043041;28;20658;-64
2021/05/08 09:18:00;;;;;;;7.97;5.43;;;;;;;10.64;52.22;100262.19;5038873;28;20053;-71
2021/05/08 09:20:41;;;;;;;9.05;3.85;;;;;;;11.90;50.96;100255.38;5046416;28;20712;-73
2021/05/08 09:23:17;;;;;;;5.50;3.83;;;;;;;12.18;47.76;100242.63;5048495;28;20116;-76
2021/05/08 09:26:04;;;;;;;9.15;4.53;;;;;;;11.75;46.57;100244.16;5043248;28;20056;-67
2021/05/08 09:28:31;;;;;;;6.15;4.35;;;;;;;11.66;46.08;100256.28;5038624;28;20071;-69
2021/05/08 09:30:58;;;;;;;8.35;5.45;;;;;;;11.68;45.76;100242.94;5040797;28;20102;-70
2021/05/08 09:33:26;;;;;;;6.60;3.97;;;;;;;11.70;46.09;100259.53;5040298;28;20048;-70
2021/05/08 09:36:05;;;;;;;6.18;3.83;;;;;;;12.09;46.66;100253.97;5039316;28;20053;-69
2021/05/08 09:38:36;;;;;;;6.38;3.65;;;;;;;12.69;46.51;100247.34;5041179;28;20049;-74
2021/05/08 09:41:04;;;;;;;5.63;3.47;;;;;;;12.64;44.70;100246.91;5040977;28;20587;-69
2021/05/08 09:43:31;;;;;;;7.18;3.83;;;;;;;12.41;44.17;100249.59;5042040;28;20045;-71
2021/05/08 09:45:58;;;;;;;6.57;3.13;;;;;;;12.07;43.11;100240.00;5042131;28;20510;-69
2021/05/08 09:48:27;;;;;;;5.00;2.85;;;;;;;11.74;44.73;100254.84;5039211;28;20053;-70
2021/05/08 09:50:54;;;;;;;7.68;3.03;;;;;;;11.77;44.44;100252.81;5037824;28;20107;-71
2021/05/08 09:53:29;;;;;;;8.52;3.53;;;;;;;11.64;44.73;100247.63;5043321;28;20132;-69
2021/05/08 09:55:55;;;;;;;7.57;3.20;;;;;;;11.58;45.48;100256.06;5040742;28;20053;-68
2021/05/08 09:58:24;;;;;;;5.38;3.38;;;;;;;11.75;44.96;100254.75;5040690;28;20568;-69
2021/05/08 10:00:51;;;;;;;5.90;3.35;;;;;;;11.98;44.84;100253.00;5040368;28;20117;-69
2021/05/08 10:03:19;;;;;;;9.13;3.60;;;;;;;12.30;44.90;100252.25;5037301;28;20056;-69
2021/05/08 10:06:07;;;;;;;4.18;3.10;;;;;;;12.37;45.25;100253.44;5040167;28;20496;-71
2021/05/08 10:08:37;;;;;;;5.82;3.38;;;;;;;12.42;44.84;100256.56;5039399;28;20052;-70
2021/05/08 10:11:04;;;;;;;8.13;3.95;;;;;;;12.03;45.45;100256.13;5038359;28;20644;-69
2021/05/08 10:13:32;;;;;;;7.03;3.03;;;;;;;11.96;45.98;100268.16;5040278;28;20053;-69
2021/05/08 10:16:01;;;;;;;5.80;3.30;;;;;;;11.82;44.69;100263.88;5024284;28;20488;-72
2021/05/08 10:18:32;;;;;;;10.38;5.40;;;;;;;11.84;45.50;100263.78;5040498;28;20052;-74
2021/05/08 10:21:00;;;;;;;8.95;6.28;;;;;;;12.19;46.17;100265.47;5046220;28;20049;-73
2021/05/08 10:23:30;;;;;;;5.65;2.92;;;;;;;12.41;44.25;100259.34;5047886;28;20049;-75
2021/05/08 10:26:03;;;;;;;4.65;3.00;;;;;;;12.46;44.74;100257.16;5049481;28;20432;-75
2021/05/08 10:28:29;;;;;;;6.45;3.65;;;;;;;12.42;43.92;100253.94;5048447;28;20683;-70
2021/05/08 10:30:56;;;;;;;7.55;3.85;;;;;;;12.52;44.29;100253.19;5045859;28;20045;-72
2021/05/08 10:33:24;;;;;;;5.43;3.10;;;;;;;12.62;44.05;100244.38;5044061;28;20059;-72
2021/05/08 10:35:52;;;;;;;8.13;3.60;;;;;;;13.04;44.19;100250.72;5046633;28;20048;-73
2021/05/08 10:38:22;;;;;;;9.82;3.55;;;;;;;13.15;42.48;100246.19;5043255;28;20045;-69
2021/05/08 10:40:59;;;;;;;8.23;4.30;;;;;;;12.74;42.97;100252.28;5045145;28;20049;-74
2021/05/08 10:43:47;;;;;;;10.60;5.35;;;;;;;12.62;42.87;100254.09;5045058;28;20045;-73
2021/05/08 10:46:14;;;;;;;12.35;4.30;;;;;;;12.70;42.96;100261.44;5042735;28;20049;-70
2021/05/08 10:49:18;;;;;;;7.80;3.40;;;;;;;12.68;41.19;100258.91;5044091;28;20427;-69
2021/05/08 10:52:06;;;;;;;4.30;2.40;;;;;;;12.97;41.82;100251.22;5039446;28;20053;-69
2021/05/08 10:54:52;;;;;;;3.63;2.45;;;;;;;13.17;40.97;100254.88;5040964;28;20048;-69
2021/05/08 10:57:23;;;;;;;5.88;2.67;;;;;;;13.00;42.35;100258.94;5041978;28;20041;-73
2021/05/08 11:00:31;;;;;;;6.35;3.35;;;;;;;12.69;43.94;100257.94;5044344;28;20132;-71
2021/05/08 11:03:01;;;;;;;8.63;4.80;;;;;;;12.13;46.23;100263.34;5044920;28;20048;-72
2021/05/08 11:05:31;;;;;;;10.60;3.90;;;;;;;11.73;47.31;100263.78;5044794;28;20056;-70
2021/05/08 11:07:58;;;;;;;10.50;4.15;;;;;;;11.91;47.22;100270.31;5044047;28;20150;-72
2021/05/08 11:10:38;;;;;;;13.38;6.32;;;;;;;12.22;46.62;100257.31;5043832;28;20113;-69
2021/05/08 11:13:09;;;;;;;8.23;4.43;;;;;;;12.47;45.04;100256.19;5042863;28;20045;-71
2021/05/08 11:16:12;;;;;;;7.40;4.28;;;;;;;12.75;45.79;100248.66;5042820;28;20473;-70
2021/05/08 11:18:40;;;;;;;8.80;4.45;;;;;;;13.01;43.81;100250.00;5024277;28;20049;-68
2021/05/08 11:21:49;;;;;;;4.43;3.00;;;;;;;12.80;40.88;100247.31;5047604;28;20373;-75
2021/05/08 11:24:39;;;;;;;6.07;2.72;;;;;;;12.76;42.04;100263.59;5047586;28;20072;-75
2021/05/08 11:27:26;;;;;;;5.25;2.55;;;;;;;12.88;41.34;100249.34;5046566;28;20056;-68
2021/05/08 11:29:55;;;;;;;6.95;2.75;;;;;;;12.89;41.34;100253.69;5044769;28;20102;-74